createdAt,value
2022-08-19T00:01:57.451Z,29.38
2022-08-19T00:04:31.437Z,29.92
2022-08-19T00:06:59.703Z,31.80
2022-08-19T00:09:28.409Z,29.58
2022-08-19T00:11:57.824Z,27.45
2022-08-19T00:14:26.615Z,26.50
2022-08-19T00:16:55.361Z,24.40
2022-08-19T00:19:24.039Z,23.98
2022-08-19T00:21:51.960Z,23.40
2022-08-19T00:24:19.896Z,22.83
2022-08-19T00:26:47.499Z,20.80
2022-08-19T00:29:19.562Z,21.92
2022-08-19T00:31:47.622Z,21.27
2022-08-19T00:34:15.824Z,20.80
2022-08-19T00:36:43.924Z,20.50
2022-08-19T00:39:12.551Z,21.45
2022-08-19T00:41:40.916Z,20.45
2022-08-19T00:44:29.934Z,22.20
2022-08-19T00:47:00.012Z,23.30
2022-08-19T00:49:42.122Z,24.85
2022-08-19T00:52:15.576Z,25.08
2022-08-19T00:54:44.554Z,25.73
2022-08-19T00:57:16.594Z,25.50
2022-08-19T01:00:00.343Z,25.35
2022-08-19T01:02:30.592Z,25.38
2022-08-19T01:04:58.185Z,24.15
2022-08-19T01:07:25.282Z,25.75
2022-08-19T01:09:52.827Z,24.48
2022-08-19T01:12:20.305Z,25.52
2022-08-19T01:14:48.748Z,26.40
2022-08-19T01:17:17.544Z,24.95
2022-08-19T01:19:47.680Z,24.27
2022-08-19T01:22:53.391Z,22.77
2022-08-19T01:25:26.224Z,23.80
2022-08-19T01:27:54.747Z,22.70
2022-08-19T01:30:27.135Z,22.83
2022-08-19T01:32:54.926Z,23.23
2022-08-19T01:35:24.541Z,23.73
2022-08-19T01:37:57.457Z,25.10
2022-08-19T01:40:28.450Z,26.63
2022-08-19T01:42:56.022Z,26.02
2022-08-19T01:45:26.560Z,24.23
2022-08-19T01:48:01.444Z,24.05
2022-08-19T01:50:32.781Z,24.02
2022-08-19T01:53:03.439Z,22.55
2022-08-19T01:55:40.812Z,22.40
2022-08-19T01:58:16.357Z,23.17
2022-08-19T02:00:44.685Z,22.77
2022-08-19T02:03:12.622Z,23.75
2022-08-19T02:05:41.486Z,23.27
2022-08-19T02:08:08.858Z,22.50
2022-08-19T02:10:42.653Z,22.95
2022-08-19T02:13:10.822Z,21.50
2022-08-19T02:15:38.319Z,20.73
2022-08-19T02:18:05.742Z,21.35
2022-08-19T02:20:32.673Z,21.55
2022-08-19T02:22:59.569Z,20.27
2022-08-19T02:25:26.542Z,20.63
2022-08-19T02:27:53.782Z,21.15
2022-08-19T02:30:21.483Z,20.45
2022-08-19T02:32:48.480Z,20.85
2022-08-19T02:35:16.113Z,19.40
2022-08-19T02:38:03.174Z,20.70
2022-08-19T02:40:35.406Z,18.88
2022-08-19T02:43:09.260Z,18.83
2022-08-19T02:45:40.490Z,19.63
2022-08-19T02:48:21.079Z,19.63
2022-08-19T02:50:54.711Z,19.80
2022-08-19T02:53:27.761Z,19.50
2022-08-19T02:55:54.918Z,19.33
2022-08-19T02:58:25.333Z,19.00
2022-08-19T03:00:56.192Z,17.38
2022-08-19T03:03:24.375Z,18.50
2022-08-19T03:05:56.778Z,17.13
2022-08-19T03:08:26.126Z,17.58
2022-08-19T03:10:54.058Z,17.08
2022-08-19T03:13:21.251Z,16.73
2022-08-19T03:15:48.857Z,17.30
2022-08-19T03:18:18.016Z,17.88
2022-08-19T03:20:49.681Z,16.67
2022-08-19T03:23:18.352Z,17.20
2022-08-19T03:26:02.853Z,16.75
2022-08-19T03:28:35.640Z,14.93
2022-08-19T03:31:43.900Z,15.50
2022-08-19T03:33:59.789Z,14.27
2022-08-19T03:36:30.498Z,13.77
2022-08-19T03:39:04.060Z,14.02
2022-08-19T03:41:44.939Z,14.07
2022-08-19T03:44:16.601Z,14.23
2022-08-19T03:46:50.112Z,14.65
2022-08-19T03:49:28.279Z,14.23
2022-08-19T03:52:01.207Z,13.85
2022-08-19T03:54:29.260Z,13.02
2022-08-19T03:56:57.911Z,13.50
2022-08-19T03:59:36.358Z,13.52
2022-08-19T04:02:12.216Z,12.88
2022-08-19T04:04:44.643Z,13.25
2022-08-19T04:07:18.951Z,12.75
2022-08-19T04:09:48.852Z,13.10
2022-08-19T04:12:20.223Z,13.15
2022-08-19T04:14:47.427Z,12.88
2022-08-19T04:17:15.071Z,12.15
2022-08-19T04:19:43.889Z,11.98
2022-08-19T04:22:12.224Z,11.18
2022-08-19T04:24:39.397Z,11.80
2022-08-19T04:27:07.207Z,10.70
2022-08-19T04:29:34.808Z,10.98
2022-08-19T04:32:09.255Z,10.70
2022-08-19T04:34:37.597Z,11.50
2022-08-19T04:37:25.698Z,10.27
2022-08-19T04:40:10.871Z,11.00
2022-08-19T04:42:40.458Z,10.95
2022-08-19T04:45:12.283Z,10.48
2022-08-19T04:47:49.333Z,10.82
2022-08-19T04:50:27.375Z,11.02
2022-08-19T04:52:54.767Z,10.55
2022-08-19T04:55:21.928Z,10.25
2022-08-19T04:57:49.054Z,10.07
2022-08-19T05:00:16.166Z,10.75
2022-08-19T05:02:43.382Z,10.38
2022-08-19T05:05:10.553Z,10.15
2022-08-19T05:07:37.904Z,10.25
2022-08-19T05:10:07.048Z,10.75
2022-08-19T05:12:34.791Z,10.77
2022-08-19T05:15:04.812Z,12.10
2022-08-19T05:17:37.439Z,11.43
2022-08-19T05:20:26.910Z,12.98
2022-08-19T05:22:53.995Z,11.77
2022-08-19T05:25:22.804Z,11.90
2022-08-19T05:27:50.209Z,11.80
2022-08-19T05:30:17.813Z,10.65
2022-08-19T05:32:45.126Z,11.00
2022-08-19T05:35:12.996Z,11.18
2022-08-19T05:37:43.842Z,10.57
2022-08-19T05:40:11.384Z,11.15
2022-08-19T05:42:39.208Z,10.65
2022-08-19T05:45:08.132Z,10.38
2022-08-19T05:47:36.053Z,10.63
2022-08-19T05:50:09.555Z,10.70
2022-08-19T05:52:39.266Z,10.25
2022-08-19T05:55:11.617Z,9.80
2022-08-19T05:57:38.843Z,9.73
2022-08-19T06:00:11.715Z,9.88
2022-08-19T06:02:39.084Z,10.23
2022-08-19T06:05:08.218Z,9.25
2022-08-19T06:10:10.543Z,9.35
2022-08-19T06:12:38.428Z,9.68
2022-08-19T06:15:14.809Z,10.70
2022-08-19T06:17:44.425Z,10.40
2022-08-19T06:20:15.420Z,10.68
2022-08-19T06:22:46.338Z,9.75
2022-08-19T06:25:15.213Z,10.00
2022-08-19T06:28:14.160Z,9.70
2022-08-19T06:30:30.049Z,9.98
2022-08-19T06:32:57.073Z,10.95
2022-08-19T06:35:24.217Z,10.40
2022-08-19T06:37:51.270Z,10.43
2022-08-19T06:40:18.394Z,11.40
2022-08-19T06:42:54.217Z,10.75
2022-08-19T06:45:35.397Z,11.15
2022-08-19T06:48:03.427Z,10.57
2022-08-19T06:50:30.364Z,12.30
2022-08-19T06:52:57.612Z,12.05
2022-08-19T06:55:31.135Z,12.05
2022-08-19T06:58:04.977Z,12.27
2022-08-19T07:03:07.682Z,11.32
2022-08-19T07:05:45.440Z,11.15
2022-08-19T07:08:14.081Z,11.50
2022-08-19T07:10:45.872Z,12.23
2022-08-19T07:13:12.940Z,12.20
2022-08-19T07:15:40.001Z,11.80
2022-08-19T07:18:06.977Z,11.25
2022-08-19T07:20:40.101Z,11.55
2022-08-19T07:23:09.942Z,10.70
2022-08-19T07:25:43.516Z,11.43
2022-08-19T07:28:23.861Z,11.27
2022-08-19T07:30:52.096Z,10.65
2022-08-19T07:33:20.290Z,10.80
2022-08-19T07:35:47.226Z,11.85
2022-08-19T07:38:14.433Z,11.07
2022-08-19T07:40:47.545Z,11.70
2022-08-19T07:43:17.970Z,11.90
2022-08-19T07:45:46.235Z,11.73
2022-08-19T07:48:13.494Z,11.00
2022-08-19T07:50:40.385Z,10.63
2022-08-19T07:53:07.344Z,9.30
2022-08-19T07:55:40.513Z,8.63
2022-08-19T07:58:13.440Z,9.13
2022-08-19T08:00:40.981Z,8.27
2022-08-19T08:03:09.676Z,8.50
2022-08-19T08:05:55.189Z,9.00
2022-08-19T08:08:44.203Z,9.38
2022-08-19T08:11:18.002Z,9.48
2022-08-19T08:14:01.209Z,8.68
2022-08-19T08:16:39.538Z,8.52
2022-08-19T08:19:18.189Z,7.80
2022-08-19T08:21:51.210Z,7.85
2022-08-19T08:24:18.994Z,7.88
2022-08-19T08:26:46.760Z,8.15
2022-08-19T08:29:20.578Z,8.30
2022-08-19T08:31:48.707Z,8.45
2022-08-19T08:34:25.711Z,7.32
2022-08-19T08:36:53.129Z,7.90
2022-08-19T08:39:22.452Z,7.50
2022-08-19T08:42:24.011Z,7.20
2022-08-19T08:45:05.325Z,6.90
2022-08-19T08:47:38.218Z,7.35
2022-08-19T08:50:18.221Z,6.78
2022-08-19T08:52:54.516Z,7.63
2022-08-19T08:55:27.938Z,7.05
2022-08-19T08:58:27.543Z,7.15
2022-08-19T09:00:54.457Z,7.90
2022-08-19T09:03:27.014Z,7.18
2022-08-19T09:06:03.169Z,7.18
2022-08-19T09:08:52.163Z,7.82
2022-08-19T09:11:44.450Z,7.80
2022-08-19T09:14:52.064Z,7.55
2022-08-19T09:17:29.223Z,6.80
2022-08-19T09:20:09.114Z,6.65
2022-08-19T09:22:38.869Z,6.35
2022-08-19T09:25:10.144Z,6.63
2022-08-19T09:27:42.886Z,6.90
2022-08-19T09:30:22.688Z,6.00
2022-08-19T09:32:52.751Z,6.28
2022-08-19T09:35:26.312Z,5.85
2022-08-19T09:37:59.617Z,5.57
2022-08-19T09:40:29.963Z,5.18
2022-08-19T09:43:03.418Z,5.03
2022-08-19T09:45:37.062Z,4.82
2022-08-19T09:48:04.531Z,3.88
2022-08-19T09:50:34.658Z,4.20
2022-08-19T09:53:01.921Z,4.68
2022-08-19T09:55:31.742Z,4.45
2022-08-19T09:58:02.337Z,4.30
2022-08-19T10:00:29.741Z,3.70
2022-08-19T10:02:56.717Z,3.33
2022-08-19T10:05:42.426Z,3.38
2022-08-19T10:08:13.404Z,3.38
2022-08-19T10:10:46.222Z,3.10
2022-08-19T10:13:17.553Z,2.70
2022-08-19T10:15:48.205Z,2.50
2022-08-19T10:18:19.093Z,2.47
2022-08-19T10:20:51.322Z,2.33
2022-08-19T10:23:20.840Z,2.40
2022-08-19T10:25:48.980Z,2.90
2022-08-19T10:28:16.357Z,2.80
2022-08-19T10:30:47.845Z,2.63
2022-08-19T10:33:16.125Z,2.15
2022-08-19T10:36:11.188Z,2.40
2022-08-19T10:38:39.017Z,2.17
2022-08-19T10:41:31.567Z,2.70
2022-08-19T10:44:06.601Z,2.70
2022-08-19T10:46:37.263Z,2.70
2022-08-19T10:49:06.401Z,2.80
2022-08-19T10:51:52.928Z,2.45
2022-08-19T10:54:29.529Z,1.88
2022-08-19T10:57:00.225Z,2.05
2022-08-19T10:59:35.291Z,2.20
2022-08-19T11:02:05.825Z,2.20
2022-08-19T11:04:34.172Z,2.20
2022-08-19T11:07:04.351Z,1.98
2022-08-19T11:09:34.242Z,1.95
2022-08-19T11:12:02.787Z,1.65
2022-08-19T11:14:34.053Z,2.33
2022-08-19T11:17:03.259Z,2.92
2022-08-19T11:19:30.300Z,3.72
2022-08-19T11:21:57.993Z,4.45
2022-08-19T11:24:28.454Z,4.30
2022-08-19T11:27:03.559Z,4.10
2022-08-19T11:29:30.517Z,4.43
2022-08-19T11:31:57.524Z,4.10
2022-08-19T11:34:28.563Z,3.97
2022-08-19T11:37:00.526Z,4.10
2022-08-19T11:39:31.567Z,4.60
2022-08-19T11:42:03.866Z,4.50
2022-08-19T11:44:31.444Z,4.00
2022-08-19T11:46:58.732Z,3.90
2022-08-19T11:49:37.123Z,3.30
2022-08-19T11:52:04.361Z,3.10
2022-08-19T11:54:31.952Z,3.00
2022-08-19T11:56:58.993Z,2.65
2022-08-19T11:59:27.750Z,2.15
2022-08-19T12:01:54.679Z,1.63
2022-08-19T12:04:21.733Z,1.45
2022-08-19T12:06:49.120Z,1.60
2022-08-19T12:09:16.500Z,1.50
2022-08-19T12:11:43.469Z,1.50
2022-08-19T12:14:14.504Z,2.45
2022-08-19T12:16:44.801Z,3.33
2022-08-19T12:19:21.749Z,3.65
2022-08-19T12:21:50.578Z,3.75
2022-08-19T12:24:23.853Z,3.95
2022-08-19T12:26:52.534Z,3.28
2022-08-19T12:29:23.801Z,3.70
2022-08-19T12:31:52.227Z,3.55
2022-08-19T12:34:21.048Z,3.60
2022-08-19T12:36:50.269Z,3.42
2022-08-19T12:39:17.459Z,2.70
2022-08-19T12:41:51.351Z,2.95
2022-08-19T12:44:28.926Z,3.15
2022-08-19T12:47:05.363Z,3.33
2022-08-19T12:49:53.214Z,3.00
2022-08-19T12:52:23.863Z,3.40
2022-08-19T12:54:54.149Z,2.70
2022-08-19T12:57:32.165Z,3.17
2022-08-19T13:00:11.734Z,3.67
2022-08-19T13:02:50.605Z,3.58
2022-08-19T13:05:23.579Z,4.00
2022-08-19T13:07:53.529Z,4.32
2022-08-19T13:10:22.620Z,4.63
2022-08-19T13:12:52.568Z,5.15
2022-08-19T13:15:23.934Z,4.57
2022-08-19T13:17:53.728Z,3.70
2022-08-19T13:20:21.941Z,3.80
2022-08-19T13:22:49.771Z,2.72
2022-08-19T13:25:19.483Z,3.17
2022-08-19T13:27:48.195Z,2.90
2022-08-19T13:30:36.486Z,3.00
2022-08-19T13:33:14.978Z,2.30
2022-08-19T13:35:56.977Z,2.17
2022-08-19T13:38:24.856Z,2.47
2022-08-19T13:40:54.391Z,2.70
2022-08-19T13:43:24.622Z,2.47
2022-08-19T13:45:57.106Z,1.95
2022-08-19T13:48:28.026Z,1.98
2022-08-19T13:51:01.860Z,1.90
2022-08-19T13:53:28.856Z,2.40
2022-08-19T13:55:55.769Z,2.10
2022-08-19T13:58:23.632Z,2.00
2022-08-19T14:00:50.815Z,1.92
2022-08-19T14:03:17.850Z,2.33
2022-08-19T14:05:44.906Z,2.15
2022-08-19T14:08:13.235Z,2.42
2022-08-19T14:10:40.329Z,2.10
2022-08-19T14:13:07.335Z,2.65
2022-08-19T14:15:34.420Z,2.28
2022-08-19T14:18:01.702Z,2.30
2022-08-19T14:20:29.018Z,2.53
2022-08-19T14:22:56.703Z,2.47
2022-08-19T14:25:28.925Z,2.78
2022-08-19T14:27:57.466Z,2.90
2022-08-19T14:30:32.121Z,2.80
2022-08-19T14:33:01.937Z,2.63
2022-08-19T14:35:31.343Z,2.10
2022-08-19T14:37:59.032Z,2.92
2022-08-19T14:40:30.482Z,3.00
2022-08-19T14:43:04.689Z,3.08
2022-08-19T14:45:40.813Z,2.80
2022-08-19T14:48:12.441Z,2.47
2022-08-19T14:50:46.210Z,2.92
2022-08-19T14:53:13.392Z,3.10
2022-08-19T14:55:47.489Z,2.33
2022-08-19T14:58:29.184Z,1.92
2022-08-19T15:01:00.147Z,2.50
2022-08-19T15:03:27.699Z,2.17
2022-08-19T15:05:55.009Z,2.05
2022-08-19T15:08:25.698Z,2.40
2022-08-19T15:10:53.839Z,1.90
2022-08-19T15:13:20.903Z,2.83
2022-08-19T15:15:48.933Z,3.10
2022-08-19T15:18:15.949Z,2.47
2022-08-19T15:20:46.794Z,2.95
2022-08-19T15:23:16.368Z,2.92
2022-08-19T15:25:44.423Z,3.30
2022-08-19T15:28:12.197Z,3.78
2022-08-19T15:30:41.349Z,3.22
2022-08-19T15:33:08.692Z,3.60
2022-08-19T15:35:35.736Z,2.83
2022-08-19T15:38:02.859Z,3.60
2022-08-19T15:40:29.841Z,3.45
2022-08-19T15:42:58.782Z,3.47
2022-08-19T15:45:32.615Z,3.63
2022-08-19T15:48:01.810Z,3.25
2022-08-19T15:50:31.916Z,2.97
2022-08-19T15:53:04.715Z,2.90
2022-08-19T15:55:35.505Z,3.13
2022-08-19T15:58:30.010Z,2.20
2022-08-19T16:01:23.614Z,1.60
2022-08-19T16:04:14.885Z,1.05
2022-08-19T16:06:56.864Z,1.40
2022-08-19T16:09:29.057Z,1.17
2022-08-19T16:12:02.540Z,0.75
2022-08-19T16:14:33.165Z,0.90
2022-08-19T16:17:00.464Z,1.08
2022-08-19T16:19:27.546Z,0.90
2022-08-19T16:21:56.849Z,1.00
2022-08-19T16:24:27.430Z,1.10
2022-08-19T16:26:55.917Z,1.23
2022-08-19T16:29:33.870Z,1.20
2022-08-19T16:32:10.392Z,1.20
2022-08-19T16:34:41.817Z,1.20
2022-08-19T16:37:10.141Z,1.27
2022-08-19T16:39:37.446Z,1.10
2022-08-19T16:42:07.485Z,1.10
2022-08-19T16:44:36.479Z,1.10
2022-08-19T16:47:03.885Z,1.10
2022-08-19T16:49:53.298Z,1.10
2022-08-19T16:52:19.911Z,1.13
2022-08-19T16:54:48.057Z,0.90
2022-08-19T16:57:15.104Z,1.30
2022-08-19T16:59:43.699Z,1.10
2022-08-19T17:02:19.197Z,1.20
2022-08-19T17:04:57.726Z,1.20
2022-08-19T17:07:33.309Z,1.05
2022-08-19T17:10:02.353Z,1.10
2022-08-19T17:12:32.010Z,0.90
2022-08-19T17:15:02.497Z,0.90
2022-08-19T17:17:31.118Z,1.40
2022-08-19T17:20:00.423Z,1.50
2022-08-19T17:22:27.989Z,1.00
2022-08-19T17:24:56.436Z,1.10
2022-08-19T17:27:27.200Z,1.13
2022-08-19T17:29:59.949Z,1.05
2022-08-19T17:32:27.335Z,1.10
2022-08-19T17:34:54.453Z,0.77
2022-08-19T17:37:21.596Z,0.95
2022-08-19T17:39:48.765Z,0.93
2022-08-19T17:42:15.821Z,1.08
2022-08-19T17:44:44.838Z,1.20
2022-08-19T17:47:17.718Z,0.80
2022-08-19T17:49:44.625Z,1.20
2022-08-19T17:52:11.876Z,0.85
2022-08-19T17:54:38.876Z,1.10
2022-08-19T17:57:06.092Z,1.00
2022-08-19T17:59:33.067Z,1.10
2022-08-19T18:02:00.302Z,1.13
2022-08-19T18:04:30.024Z,1.25
2022-08-19T18:06:57.473Z,0.98
2022-08-19T18:09:42.528Z,1.30
2022-08-19T18:12:16.368Z,1.38
2022-08-19T18:14:43.537Z,0.90
2022-08-19T18:17:13.981Z,1.10
2022-08-19T18:19:43.762Z,1.00
2022-08-19T18:22:39.448Z,1.20
2022-08-19T18:25:14.116Z,1.00
2022-08-19T18:27:43.404Z,0.88
2022-08-19T18:30:11.961Z,0.93
2022-08-19T18:32:40.054Z,1.35
2022-08-19T18:35:14.993Z,1.38
2022-08-19T18:37:44.002Z,1.25
2022-08-19T18:40:34.211Z,1.30
2022-08-19T18:43:19.553Z,1.25
2022-08-19T18:46:07.261Z,1.23
2022-08-19T18:48:53.994Z,1.52
2022-08-19T18:51:24.195Z,1.40
2022-08-19T18:53:53.479Z,1.90
2022-08-19T18:56:21.499Z,1.77
2022-08-19T18:58:50.411Z,1.70
2022-08-19T19:01:21.758Z,1.60
2022-08-19T19:03:53.388Z,1.48
2022-08-19T19:06:28.929Z,1.60
2022-08-19T19:08:56.965Z,1.50
2022-08-19T19:11:33.952Z,1.42
2022-08-19T19:14:02.591Z,1.40
2022-08-19T19:16:31.410Z,1.73
2022-08-19T19:18:59.205Z,1.83
2022-08-19T19:21:26.863Z,1.90
2022-08-19T19:23:55.485Z,1.70
2022-08-19T19:26:22.836Z,1.90
2022-08-19T19:28:51.406Z,1.80
2022-08-19T19:31:26.566Z,1.50
2022-08-19T19:33:56.038Z,1.50
2022-08-19T19:36:24.025Z,1.83
2022-08-19T19:38:51.260Z,1.40
2022-08-19T19:41:25.067Z,1.58
2022-08-19T19:44:29.379Z,1.35
2022-08-19T19:46:48.222Z,1.42
2022-08-19T19:49:15.392Z,1.10
2022-08-19T19:51:43.480Z,1.20
2022-08-19T19:54:13.741Z,1.13
2022-08-19T19:56:45.066Z,1.20
2022-08-19T19:59:12.884Z,1.05
2022-08-19T20:01:44.900Z,1.30
2022-08-19T20:04:17.003Z,1.15
2022-08-19T20:06:46.093Z,1.42
2022-08-19T20:09:19.638Z,1.52
2022-08-19T20:11:55.884Z,1.30
2022-08-19T20:14:25.403Z,1.27
2022-08-19T20:16:53.902Z,1.50
2022-08-19T20:19:26.038Z,1.27
2022-08-19T20:21:55.887Z,1.52
2022-08-19T20:24:27.506Z,1.55
2022-08-19T20:26:54.523Z,1.63
2022-08-19T20:29:38.713Z,1.60
2022-08-19T20:32:08.546Z,1.98
2022-08-19T20:34:36.112Z,2.13
2022-08-19T20:37:09.270Z,1.50
2022-08-19T20:39:39.706Z,1.80
2022-08-19T20:42:06.822Z,1.75
2022-08-19T20:44:33.874Z,2.13
2022-08-19T20:47:03.846Z,1.70
2022-08-19T20:49:32.118Z,2.20
2022-08-19T20:51:59.207Z,2.40
2022-08-19T20:54:26.982Z,2.97
2022-08-19T20:56:55.732Z,2.85
2022-08-19T20:59:23.768Z,3.08
2022-08-19T21:01:51.952Z,3.58
2022-08-19T21:04:21.252Z,3.03
2022-08-19T21:06:50.225Z,3.47
2022-08-19T21:09:17.546Z,3.65
2022-08-19T21:11:44.516Z,3.63
2022-08-19T21:14:11.944Z,3.67
2022-08-19T21:16:39.177Z,3.35
2022-08-19T21:19:06.420Z,3.92
2022-08-19T21:21:33.446Z,4.05
2022-08-19T21:24:01.435Z,4.13
2022-08-19T21:26:28.365Z,4.78
2022-08-19T21:28:55.370Z,5.00
2022-08-19T21:31:22.730Z,4.53
2022-08-19T21:33:49.669Z,4.60
2022-08-19T21:36:17.284Z,4.97
2022-08-19T21:38:44.215Z,4.20
2022-08-19T21:41:11.266Z,4.30
2022-08-19T21:43:39.122Z,4.10
2022-08-19T21:46:07.009Z,4.63
2022-08-19T21:48:34.226Z,5.47
2022-08-19T21:51:01.199Z,5.75
2022-08-19T21:53:33.269Z,5.32
2022-08-19T21:56:01.843Z,6.03
2022-08-19T21:58:30.669Z,6.45
2022-08-19T22:01:01.641Z,5.80
2022-08-19T22:03:29.411Z,5.85
2022-08-19T22:05:56.419Z,6.10
2022-08-19T22:08:23.434Z,5.75
2022-08-19T22:10:50.808Z,6.63
2022-08-19T22:13:21.394Z,6.10
2022-08-19T22:15:52.484Z,6.28
2022-08-19T22:18:19.416Z,6.55
2022-08-19T22:20:48.029Z,6.22
2022-08-19T22:23:15.089Z,6.07
2022-08-19T22:25:46.366Z,5.57
2022-08-19T22:28:18.724Z,5.50
2022-08-19T22:30:47.538Z,4.95
2022-08-19T22:33:21.277Z,4.65
2022-08-19T22:35:48.875Z,4.80
2022-08-19T22:38:16.431Z,4.53
2022-08-19T22:40:47.620Z,4.43
2022-08-19T22:43:21.481Z,4.60
2022-08-19T22:45:50.890Z,4.53
2022-08-19T22:48:22.489Z,4.55
2022-08-19T22:51:09.814Z,4.18
2022-08-19T22:53:41.224Z,4.25
2022-08-19T22:56:14.595Z,5.00
2022-08-19T22:58:42.490Z,4.35
2022-08-19T23:01:27.178Z,4.18
2022-08-19T23:03:57.329Z,4.22
2022-08-19T23:06:33.216Z,4.45
2022-08-19T23:09:05.238Z,4.18
2022-08-19T23:11:41.985Z,3.83
2022-08-19T23:14:10.408Z,4.70
2022-08-19T23:16:37.330Z,5.38
2022-08-19T23:19:07.208Z,5.13
2022-08-19T23:21:36.294Z,4.25
2022-08-19T23:24:04.344Z,4.20
2022-08-19T23:26:35.564Z,4.55
2022-08-19T23:29:22.518Z,4.80
2022-08-19T23:31:49.776Z,3.92
2022-08-19T23:34:20.445Z,4.25
2022-08-19T23:36:50.921Z,4.35
2022-08-19T23:39:18.142Z,4.32
2022-08-19T23:41:45.052Z,4.10
2022-08-19T23:44:14.438Z,3.92
2022-08-19T23:46:54.342Z,3.67
2022-08-19T23:49:21.705Z,4.15
2022-08-19T23:51:48.633Z,4.07
2022-08-19T23:54:15.522Z,4.75
2022-08-19T23:56:42.537Z,3.97
2022-08-19T23:59:11.850Z,4.78
